sensor_id;sensor_type;location;lat;lon;timestamp;temperature;humidity
11126;DHT22;5617;54.046;10.676;2022-10-16T00:00:24;14.60;99.90
11126;DHT22;5617;54.046;10.676;2022-10-16T00:02:32;14.60;99.90
11126;DHT22;5617;54.046;10.676;2022-10-16T00:04:41;14.60;99.90
11126;DHT22;5617;54.046;10.676;2022-10-16T00:06:51;14.60;99.90
11126;DHT22;5617;54.046;10.676;2022-10-16T00:08:59;14.60;99.90
11126;DHT22;5617;54.046;10.676;2022-10-16T00:11:09;14.50;99.90
11126;DHT22;5617;54.046;10.676;2022-10-16T00:13:17;14.50;99.90
11126;DHT22;5617;54.046;10.676;2022-10-16T00:15:28;14.40;99.90
11126;DHT22;5617;54.046;10.676;2022-10-16T00:17:36;14.40;99.90
11126;DHT22;5617;54.046;10.676;2022-10-16T00:19:45;14.40;99.90
11126;DHT22;5617;54.046;10.676;2022-10-16T00:21:52;14.40;99.90
11126;DHT22;5617;54.046;10.676;2022-10-16T00:24:02;14.40;99.90
11126;DHT22;5617;54.046;10.676;2022-10-16T00:26:16;14.40;99.90
11126;DHT22;5617;54.046;10.676;2022-10-16T00:28:25;14.40;99.90
11126;DHT22;5617;54.046;10.676;2022-10-16T00:30:32;14.40;99.90
11126;DHT22;5617;54.046;10.676;2022-10-16T00:32:40;14.40;99.90
11126;DHT22;5617;54.046;10.676;2022-10-16T00:34:49;14.30;99.90
11126;DHT22;5617;54.046;10.676;2022-10-16T00:36:57;14.30;99.90
11126;DHT22;5617;54.046;10.676;2022-10-16T00:39:05;14.30;99.90
11126;DHT22;5617;54.046;10.676;2022-10-16T00:41:15;14.20;99.90
11126;DHT22;5617;54.046;10.676;2022-10-16T00:43:38;14.20;99.90
11126;DHT22;5617;54.046;10.676;2022-10-16T00:45:46;14.20;99.90
11126;DHT22;5617;54.046;10.676;2022-10-16T00:47:55;14.20;99.90
11126;DHT22;5617;54.046;10.676;2022-10-16T00:50:09;14.20;99.90
11126;DHT22;5617;54.046;10.676;2022-10-16T00:52:19;14.20;99.90
11126;DHT22;5617;54.046;10.676;2022-10-16T00:54:28;14.20;99.90
11126;DHT22;5617;54.046;10.676;2022-10-16T00:56:37;14.20;99.90
11126;DHT22;5617;54.046;10.676;2022-10-16T00:58:45;14.10;99.90
11126;DHT22;5617;54.046;10.676;2022-10-16T01:00:52;14.20;99.90
11126;DHT22;5617;54.046;10.676;2022-10-16T01:03:01;14.20;99.90
11126;DHT22;5617;54.046;10.676;2022-10-16T01:05:12;14.20;99.90
11126;DHT22;5617;54.046;10.676;2022-10-16T01:07:29;14.10;99.90
11126;DHT22;5617;54.046;10.676;2022-10-16T01:09:45;14.10;99.90
11126;DHT22;5617;54.046;10.676;2022-10-16T01:12:01;14.10;99.90
11126;DHT22;5617;54.046;10.676;2022-10-16T01:14:14;14.20;99.90
11126;DHT22;5617;54.046;10.676;2022-10-16T01:16:33;14.10;99.90
11126;DHT22;5617;54.046;10.676;2022-10-16T01:18:44;14.10;99.90
11126;DHT22;5617;54.046;10.676;2022-10-16T01:20:55;14.10;99.90
11126;DHT22;5617;54.046;10.676;2022-10-16T01:23:15;14.10;99.90
11126;DHT22;5617;54.046;10.676;2022-10-16T01:25:36;14.00;99.90
11126;DHT22;5617;54.046;10.676;2022-10-16T01:27:48;14.00;99.90
11126;DHT22;5617;54.046;10.676;2022-10-16T01:30:02;14.00;99.90
11126;DHT22;5617;54.046;10.676;2022-10-16T01:32:18;14.00;99.90
11126;DHT22;5617;54.046;10.676;2022-10-16T01:34:32;14.00;99.90
11126;DHT22;5617;54.046;10.676;2022-10-16T01:36:45;14.00;99.90
11126;DHT22;5617;54.046;10.676;2022-10-16T01:38:56;14.00;99.90
11126;DHT22;5617;54.046;10.676;2022-10-16T01:41:10;14.00;99.90
11126;DHT22;5617;54.046;10.676;2022-10-16T01:43:22;14.00;99.90
11126;DHT22;5617;54.046;10.676;2022-10-16T01:45:32;14.00;99.90
11126;DHT22;5617;54.046;10.676;2022-10-16T01:47:42;14.00;99.90
11126;DHT22;5617;54.046;10.676;2022-10-16T01:49:51;13.90;99.90
11126;DHT22;5617;54.046;10.676;2022-10-16T01:52:04;13.90;99.90
11126;DHT22;5617;54.046;10.676;2022-10-16T01:54:14;13.90;99.90
11126;DHT22;5617;54.046;10.676;2022-10-16T01:56:25;13.90;99.90
11126;DHT22;5617;54.046;10.676;2022-10-16T01:58:37;13.90;99.90
11126;DHT22;5617;54.046;10.676;2022-10-16T02:00:47;13.80;99.90
11126;DHT22;5617;54.046;10.676;2022-10-16T02:02:57;13.90;99.90
11126;DHT22;5617;54.046;10.676;2022-10-16T02:05:12;13.90;99.90
11126;DHT22;5617;54.046;10.676;2022-10-16T02:07:22;13.90;99.90
11126;DHT22;5617;54.046;10.676;2022-10-16T02:09:30;13.90;99.90
11126;DHT22;5617;54.046;10.676;2022-10-16T02:11:39;13.90;99.90
11126;DHT22;5617;54.046;10.676;2022-10-16T02:13:53;13.80;99.90
11126;DHT22;5617;54.046;10.676;2022-10-16T02:16:03;13.80;99.90
11126;DHT22;5617;54.046;10.676;2022-10-16T02:18:11;13.80;99.90
11126;DHT22;5617;54.046;10.676;2022-10-16T02:20:24;13.80;99.90
11126;DHT22;5617;54.046;10.676;2022-10-16T02:22:35;13.90;99.90
11126;DHT22;5617;54.046;10.676;2022-10-16T02:24:50;13.80;99.90
11126;DHT22;5617;54.046;10.676;2022-10-16T02:27:05;13.80;99.90
11126;DHT22;5617;54.046;10.676;2022-10-16T02:29:19;13.80;99.90
11126;DHT22;5617;54.046;10.676;2022-10-16T02:31:31;13.80;99.90
11126;DHT22;5617;54.046;10.676;2022-10-16T02:33:42;13.70;99.90
11126;DHT22;5617;54.046;10.676;2022-10-16T02:35:50;13.90;99.90
11126;DHT22;5617;54.046;10.676;2022-10-16T02:37:59;13.70;99.90
11126;DHT22;5617;54.046;10.676;2022-10-16T02:40:08;13.70;99.90
11126;DHT22;5617;54.046;10.676;2022-10-16T02:42:15;13.70;99.90
11126;DHT22;5617;54.046;10.676;2022-10-16T02:44:26;13.70;99.90
11126;DHT22;5617;54.046;10.676;2022-10-16T02:46:34;13.70;99.90
11126;DHT22;5617;54.046;10.676;2022-10-16T02:48:41;13.70;99.90
11126;DHT22;5617;54.046;10.676;2022-10-16T02:50:49;13.70;99.90
11126;DHT22;5617;54.046;10.676;2022-10-16T02:52:57;13.60;99.90
11126;DHT22;5617;54.046;10.676;2022-10-16T02:55:07;13.70;99.90
11126;DHT22;5617;54.046;10.676;2022-10-16T02:57:15;13.70;99.90
11126;DHT22;5617;54.046;10.676;2022-10-16T02:59:29;13.60;99.90
11126;DHT22;5617;54.046;10.676;2022-10-16T03:01:39;13.60;99.90
11126;DHT22;5617;54.046;10.676;2022-10-16T03:03:47;13.60;99.90
11126;DHT22;5617;54.046;10.676;2022-10-16T03:05:57;13.60;99.90
11126;DHT22;5617;54.046;10.676;2022-10-16T03:08:06;13.60;99.90
11126;DHT22;5617;54.046;10.676;2022-10-16T03:10:15;13.60;99.90
11126;DHT22;5617;54.046;10.676;2022-10-16T03:12:24;13.60;99.90
11126;DHT22;5617;54.046;10.676;2022-10-16T03:14:34;13.50;99.90
11126;DHT22;5617;54.046;10.676;2022-10-16T03:16:42;13.50;99.90
11126;DHT22;5617;54.046;10.676;2022-10-16T03:18:51;13.50;99.90
11126;DHT22;5617;54.046;10.676;2022-10-16T03:21:00;13.50;99.90
11126;DHT22;5617;54.046;10.676;2022-10-16T03:23:09;13.40;99.90
11126;DHT22;5617;54.046;10.676;2022-10-16T03:25:18;13.40;99.90
11126;DHT22;5617;54.046;10.676;2022-10-16T03:27:26;13.40;99.90
11126;DHT22;5617;54.046;10.676;2022-10-16T03:29:36;13.40;99.90
11126;DHT22;5617;54.046;10.676;2022-10-16T03:31:44;13.30;99.90
11126;DHT22;5617;54.046;10.676;2022-10-16T03:33:54;13.30;99.90
11126;DHT22;5617;54.046;10.676;2022-10-16T03:36:03;13.30;99.90
11126;DHT22;5617;54.046;10.676;2022-10-16T03:38:10;13.30;99.90
11126;DHT22;5617;54.046;10.676;2022-10-16T03:40:18;13.20;99.90
11126;DHT22;5617;54.046;10.676;2022-10-16T03:42:26;13.20;99.90
11126;DHT22;5617;54.046;10.676;2022-10-16T03:44:33;13.20;99.90
11126;DHT22;5617;54.046;10.676;2022-10-16T03:46:42;13.10;99.90
11126;DHT22;5617;54.046;10.676;2022-10-16T03:48:50;13.10;99.90
11126;DHT22;5617;54.046;10.676;2022-10-16T03:50:58;13.10;99.90
11126;DHT22;5617;54.046;10.676;2022-10-16T03:53:06;13.10;99.90
11126;DHT22;5617;54.046;10.676;2022-10-16T03:55:14;13.10;99.90
11126;DHT22;5617;54.046;10.676;2022-10-16T03:57:22;13.10;99.90
11126;DHT22;5617;54.046;10.676;2022-10-16T03:59:29;13.10;99.90
11126;DHT22;5617;54.046;10.676;2022-10-16T04:01:37;13.10;99.90
11126;DHT22;5617;54.046;10.676;2022-10-16T04:03:46;13.10;99.90
11126;DHT22;5617;54.046;10.676;2022-10-16T04:05:53;13.10;99.90
11126;DHT22;5617;54.046;10.676;2022-10-16T04:08:01;13.10;99.90
11126;DHT22;5617;54.046;10.676;2022-10-16T04:10:09;13.00;99.90
11126;DHT22;5617;54.046;10.676;2022-10-16T04:12:17;13.10;99.90
11126;DHT22;5617;54.046;10.676;2022-10-16T04:14:25;13.00;99.90
11126;DHT22;5617;54.046;10.676;2022-10-16T04:16:32;13.00;99.90
11126;DHT22;5617;54.046;10.676;2022-10-16T04:18:40;13.00;99.90
11126;DHT22;5617;54.046;10.676;2022-10-16T04:20:49;13.00;99.90
11126;DHT22;5617;54.046;10.676;2022-10-16T04:22:57;13.00;99.90
11126;DHT22;5617;54.046;10.676;2022-10-16T04:25:05;13.00;99.90
11126;DHT22;5617;54.046;10.676;2022-10-16T04:27:13;13.00;99.90
11126;DHT22;5617;54.046;10.676;2022-10-16T04:29:21;12.90;99.90
11126;DHT22;5617;54.046;10.676;2022-10-16T04:31:29;12.90;99.90
11126;DHT22;5617;54.046;10.676;2022-10-16T04:33:37;12.90;99.90
11126;DHT22;5617;54.046;10.676;2022-10-16T04:35:45;12.90;99.90
11126;DHT22;5617;54.046;10.676;2022-10-16T04:37:53;12.90;99.90
11126;DHT22;5617;54.046;10.676;2022-10-16T04:40:01;12.90;99.90
11126;DHT22;5617;54.046;10.676;2022-10-16T04:42:09;12.90;99.90
11126;DHT22;5617;54.046;10.676;2022-10-16T04:44:17;12.90;99.90
11126;DHT22;5617;54.046;10.676;2022-10-16T04:46:24;12.90;99.90
11126;DHT22;5617;54.046;10.676;2022-10-16T04:48:32;12.80;99.90
11126;DHT22;5617;54.046;10.676;2022-10-16T04:50:41;12.80;99.90
11126;DHT22;5617;54.046;10.676;2022-10-16T04:52:48;12.80;99.90
11126;DHT22;5617;54.046;10.676;2022-10-16T04:54:58;12.80;99.90
11126;DHT22;5617;54.046;10.676;2022-10-16T04:57:08;12.80;99.90
11126;DHT22;5617;54.046;10.676;2022-10-16T04:59:16;12.80;99.90
11126;DHT22;5617;54.046;10.676;2022-10-16T05:01:24;12.80;99.90
11126;DHT22;5617;54.046;10.676;2022-10-16T05:03:32;12.80;99.90
11126;DHT22;5617;54.046;10.676;2022-10-16T05:05:42;12.80;99.90
11126;DHT22;5617;54.046;10.676;2022-10-16T05:07:50;12.70;99.90
11126;DHT22;5617;54.046;10.676;2022-10-16T05:09:59;12.70;99.90
11126;DHT22;5617;54.046;10.676;2022-10-16T05:12:07;12.70;99.90
11126;DHT22;5617;54.046;10.676;2022-10-16T05:14:15;12.70;99.90
11126;DHT22;5617;54.046;10.676;2022-10-16T05:16:23;12.60;99.90
11126;DHT22;5617;54.046;10.676;2022-10-16T05:18:30;12.60;99.90
11126;DHT22;5617;54.046;10.676;2022-10-16T05:20:38;12.60;99.90
11126;DHT22;5617;54.046;10.676;2022-10-16T05:22:46;12.60;99.90
11126;DHT22;5617;54.046;10.676;2022-10-16T05:24:54;12.60;99.90
11126;DHT22;5617;54.046;10.676;2022-10-16T05:27:03;12.60;99.90
11126;DHT22;5617;54.046;10.676;2022-10-16T05:29:11;12.60;99.90
11126;DHT22;5617;54.046;10.676;2022-10-16T05:31:19;12.60;99.90
11126;DHT22;5617;54.046;10.676;2022-10-16T05:33:26;12.50;99.90
11126;DHT22;5617;54.046;10.676;2022-10-16T05:35:34;12.50;99.90
11126;DHT22;5617;54.046;10.676;2022-10-16T05:37:43;12.50;99.90
11126;DHT22;5617;54.046;10.676;2022-10-16T05:39:50;12.50;99.90
11126;DHT22;5617;54.046;10.676;2022-10-16T05:41:58;12.50;99.90
11126;DHT22;5617;54.046;10.676;2022-10-16T05:44:07;12.40;99.90
11126;DHT22;5617;54.046;10.676;2022-10-16T05:46:15;12.40;99.90
11126;DHT22;5617;54.046;10.676;2022-10-16T05:48:24;12.40;99.90
11126;DHT22;5617;54.046;10.676;2022-10-16T05:50:32;12.40;99.90
11126;DHT22;5617;54.046;10.676;2022-10-16T05:52:39;12.40;99.90
11126;DHT22;5617;54.046;10.676;2022-10-16T05:54:47;12.40;99.90
11126;DHT22;5617;54.046;10.676;2022-10-16T05:56:55;12.40;99.90
11126;DHT22;5617;54.046;10.676;2022-10-16T05:59:03;12.40;99.90
11126;DHT22;5617;54.046;10.676;2022-10-16T06:01:14;12.40;99.90
11126;DHT22;5617;54.046;10.676;2022-10-16T06:03:22;12.40;99.90
11126;DHT22;5617;54.046;10.676;2022-10-16T06:05:29;12.40;99.90
11126;DHT22;5617;54.046;10.676;2022-10-16T06:07:37;12.40;99.90
11126;DHT22;5617;54.046;10.676;2022-10-16T06:09:48;12.40;99.90
11126;DHT22;5617;54.046;10.676;2022-10-16T06:11:56;12.40;99.90
11126;DHT22;5617;54.046;10.676;2022-10-16T06:14:04;12.50;99.90
11126;DHT22;5617;54.046;10.676;2022-10-16T06:16:14;12.40;99.90
11126;DHT22;5617;54.046;10.676;2022-10-16T06:18:22;12.40;99.90
11126;DHT22;5617;54.046;10.676;2022-10-16T06:20:29;12.50;99.90
11126;DHT22;5617;54.046;10.676;2022-10-16T06:22:37;12.40;99.90
11126;DHT22;5617;54.046;10.676;2022-10-16T06:24:45;12.50;99.90
11126;DHT22;5617;54.046;10.676;2022-10-16T06:26:53;12.50;99.90
11126;DHT22;5617;54.046;10.676;2022-10-16T06:29:01;12.50;99.90
11126;DHT22;5617;54.046;10.676;2022-10-16T06:31:10;12.50;99.90
11126;DHT22;5617;54.046;10.676;2022-10-16T06:33:20;12.50;99.90
11126;DHT22;5617;54.046;10.676;2022-10-16T06:35:27;12.50;99.90
11126;DHT22;5617;54.046;10.676;2022-10-16T06:37:38;12.50;99.90
11126;DHT22;5617;54.046;10.676;2022-10-16T06:39:46;12.50;99.90
11126;DHT22;5617;54.046;10.676;2022-10-16T06:41:53;12.50;99.90
11126;DHT22;5617;54.046;10.676;2022-10-16T06:44:01;12.50;99.90
11126;DHT22;5617;54.046;10.676;2022-10-16T06:46:14;12.50;99.90
11126;DHT22;5617;54.046;10.676;2022-10-16T06:48:24;12.60;99.90
11126;DHT22;5617;54.046;10.676;2022-10-16T06:50:32;12.70;99.90
11126;DHT22;5617;54.046;10.676;2022-10-16T06:52:40;12.70;99.90
11126;DHT22;5617;54.046;10.676;2022-10-16T06:54:47;12.70;99.90
11126;DHT22;5617;54.046;10.676;2022-10-16T06:56:55;12.70;99.90
11126;DHT22;5617;54.046;10.676;2022-10-16T06:59:03;12.70;99.90
11126;DHT22;5617;54.046;10.676;2022-10-16T07:01:11;12.70;99.90
11126;DHT22;5617;54.046;10.676;2022-10-16T07:03:22;12.80;99.90
11126;DHT22;5617;54.046;10.676;2022-10-16T07:05:31;12.80;99.90
11126;DHT22;5617;54.046;10.676;2022-10-16T07:07:40;12.80;99.90
11126;DHT22;5617;54.046;10.676;2022-10-16T07:09:48;12.90;99.90
11126;DHT22;5617;54.046;10.676;2022-10-16T07:11:55;12.90;99.90
11126;DHT22;5617;54.046;10.676;2022-10-16T07:14:04;13.00;99.90
11126;DHT22;5617;54.046;10.676;2022-10-16T07:16:13;13.00;99.90
11126;DHT22;5617;54.046;10.676;2022-10-16T07:18:22;13.00;99.90
11126;DHT22;5617;54.046;10.676;2022-10-16T07:20:32;13.00;99.90
11126;DHT22;5617;54.046;10.676;2022-10-16T07:22:41;13.10;99.90
11126;DHT22;5617;54.046;10.676;2022-10-16T07:24:49;13.00;99.90
11126;DHT22;5617;54.046;10.676;2022-10-16T07:26:58;13.10;99.90
11126;DHT22;5617;54.046;10.676;2022-10-16T07:29:07;13.10;99.90
11126;DHT22;5617;54.046;10.676;2022-10-16T07:31:20;13.10;99.90
11126;DHT22;5617;54.046;10.676;2022-10-16T07:33:29;13.20;99.90
11126;DHT22;5617;54.046;10.676;2022-10-16T07:35:37;13.30;99.90
11126;DHT22;5617;54.046;10.676;2022-10-16T07:37:45;13.50;99.90
11126;DHT22;5617;54.046;10.676;2022-10-16T07:39:53;13.80;99.90
11126;DHT22;5617;54.046;10.676;2022-10-16T07:42:02;14.00;99.90
11126;DHT22;5617;54.046;10.676;2022-10-16T07:44:09;14.10;99.90
11126;DHT22;5617;54.046;10.676;2022-10-16T07:46:18;14.20;99.90
11126;DHT22;5617;54.046;10.676;2022-10-16T07:48:30;14.30;99.90
11126;DHT22;5617;54.046;10.676;2022-10-16T07:50:38;14.30;99.90
11126;DHT22;5617;54.046;10.676;2022-10-16T07:52:45;14.30;99.90
11126;DHT22;5617;54.046;10.676;2022-10-16T07:54:53;14.50;99.90
11126;DHT22;5617;54.046;10.676;2022-10-16T07:57:01;14.50;99.90
11126;DHT22;5617;54.046;10.676;2022-10-16T07:59:09;14.60;99.90
11126;DHT22;5617;54.046;10.676;2022-10-16T08:01:18;14.70;99.90
11126;DHT22;5617;54.046;10.676;2022-10-16T08:03:26;14.80;99.90
11126;DHT22;5617;54.046;10.676;2022-10-16T08:05:35;14.90;99.90
11126;DHT22;5617;54.046;10.676;2022-10-16T08:07:43;15.10;99.90
11126;DHT22;5617;54.046;10.676;2022-10-16T08:09:55;15.30;99.90
11126;DHT22;5617;54.046;10.676;2022-10-16T08:12:04;15.40;99.90
11126;DHT22;5617;54.046;10.676;2022-10-16T08:14:12;15.40;99.90
11126;DHT22;5617;54.046;10.676;2022-10-16T08:16:20;15.40;99.90
11126;DHT22;5617;54.046;10.676;2022-10-16T08:18:28;15.40;99.90
11126;DHT22;5617;54.046;10.676;2022-10-16T08:20:38;15.40;99.90
11126;DHT22;5617;54.046;10.676;2022-10-16T08:22:46;15.40;99.90
11126;DHT22;5617;54.046;10.676;2022-10-16T08:24:54;15.50;99.90
11126;DHT22;5617;54.046;10.676;2022-10-16T08:27:01;15.70;99.90
11126;DHT22;5617;54.046;10.676;2022-10-16T08:29:09;15.70;99.90
11126;DHT22;5617;54.046;10.676;2022-10-16T08:31:17;15.80;99.90
11126;DHT22;5617;54.046;10.676;2022-10-16T08:33:25;15.90;99.90
11126;DHT22;5617;54.046;10.676;2022-10-16T08:35:32;16.00;99.90
11126;DHT22;5617;54.046;10.676;2022-10-16T08:37:42;16.20;99.90
11126;DHT22;5617;54.046;10.676;2022-10-16T08:39:50;16.30;99.90
11126;DHT22;5617;54.046;10.676;2022-10-16T08:42:13;16.40;99.90
11126;DHT22;5617;54.046;10.676;2022-10-16T08:44:30;16.50;99.90
11126;DHT22;5617;54.046;10.676;2022-10-16T08:46:48;16.60;99.90
11126;DHT22;5617;54.046;10.676;2022-10-16T08:49:02;16.70;99.90
11126;DHT22;5617;54.046;10.676;2022-10-16T08:51:19;16.80;99.90
11126;DHT22;5617;54.046;10.676;2022-10-16T08:53:33;16.90;99.90
11126;DHT22;5617;54.046;10.676;2022-10-16T08:55:46;17.00;99.90
11126;DHT22;5617;54.046;10.676;2022-10-16T08:57:56;17.00;99.90
11126;DHT22;5617;54.046;10.676;2022-10-16T09:00:12;17.10;99.90
11126;DHT22;5617;54.046;10.676;2022-10-16T09:02:26;17.20;99.90
11126;DHT22;5617;54.046;10.676;2022-10-16T09:04:52;17.30;99.90
11126;DHT22;5617;54.046;10.676;2022-10-16T09:07:06;17.20;99.90
11126;DHT22;5617;54.046;10.676;2022-10-16T09:09:32;17.30;99.90
11126;DHT22;5617;54.046;10.676;2022-10-16T09:11:47;17.30;99.90
11126;DHT22;5617;54.046;10.676;2022-10-16T09:14:03;17.50;99.90
11126;DHT22;5617;54.046;10.676;2022-10-16T09:16:16;17.40;99.90
11126;DHT22;5617;54.046;10.676;2022-10-16T09:18:31;17.40;99.90
11126;DHT22;5617;54.046;10.676;2022-10-16T09:20:50;17.50;99.90
11126;DHT22;5617;54.046;10.676;2022-10-16T09:23:10;17.50;99.90
11126;DHT22;5617;54.046;10.676;2022-10-16T09:25:21;17.60;99.90
11126;DHT22;5617;54.046;10.676;2022-10-16T09:27:30;17.70;99.90
11126;DHT22;5617;54.046;10.676;2022-10-16T09:29:38;17.80;99.90
11126;DHT22;5617;54.046;10.676;2022-10-16T09:31:47;17.80;99.90
11126;DHT22;5617;54.046;10.676;2022-10-16T09:33:58;17.90;99.90
11126;DHT22;5617;54.046;10.676;2022-10-16T09:36:08;17.90;99.90
11126;DHT22;5617;54.046;10.676;2022-10-16T09:38:26;17.90;99.90
11126;DHT22;5617;54.046;10.676;2022-10-16T09:40:37;18.10;99.90
11126;DHT22;5617;54.046;10.676;2022-10-16T09:42:46;18.10;99.90
11126;DHT22;5617;54.046;10.676;2022-10-16T09:44:54;18.10;99.90
11126;DHT22;5617;54.046;10.676;2022-10-16T09:47:02;18.00;99.90
11126;DHT22;5617;54.046;10.676;2022-10-16T09:49:21;18.00;99.90
11126;DHT22;5617;54.046;10.676;2022-10-16T09:51:31;18.10;99.90
11126;DHT22;5617;54.046;10.676;2022-10-16T09:53:41;18.20;99.90
11126;DHT22;5617;54.046;10.676;2022-10-16T09:55:51;18.20;99.90
11126;DHT22;5617;54.046;10.676;2022-10-16T09:57:59;18.30;99.90
11126;DHT22;5617;54.046;10.676;2022-10-16T10:00:09;18.40;99.90
11126;DHT22;5617;54.046;10.676;2022-10-16T10:02:18;18.40;99.90
11126;DHT22;5617;54.046;10.676;2022-10-16T10:04:38;18.40;99.90
11126;DHT22;5617;54.046;10.676;2022-10-16T10:06:48;18.50;99.90
11126;DHT22;5617;54.046;10.676;2022-10-16T10:09:03;18.50;99.90
11126;DHT22;5617;54.046;10.676;2022-10-16T10:11:12;18.70;99.90
11126;DHT22;5617;54.046;10.676;2022-10-16T10:13:21;18.90;99.90
11126;DHT22;5617;54.046;10.676;2022-10-16T10:15:34;18.90;99.90
11126;DHT22;5617;54.046;10.676;2022-10-16T10:17:46;18.90;99.90
11126;DHT22;5617;54.046;10.676;2022-10-16T10:19:56;18.90;99.90
11126;DHT22;5617;54.046;10.676;2022-10-16T10:22:15;18.90;99.90
11126;DHT22;5617;54.046;10.676;2022-10-16T10:24:24;19.00;99.90
11126;DHT22;5617;54.046;10.676;2022-10-16T10:26:33;19.00;99.90
11126;DHT22;5617;54.046;10.676;2022-10-16T10:28:54;19.10;99.90
11126;DHT22;5617;54.046;10.676;2022-10-16T10:31:08;19.20;99.90
11126;DHT22;5617;54.046;10.676;2022-10-16T10:33:26;19.20;99.90
11126;DHT22;5617;54.046;10.676;2022-10-16T10:35:42;19.20;99.90
11126;DHT22;5617;54.046;10.676;2022-10-16T10:38:00;19.20;99.90
11126;DHT22;5617;54.046;10.676;2022-10-16T10:40:17;19.20;99.90
11126;DHT22;5617;54.046;10.676;2022-10-16T10:42:34;19.20;99.90
11126;DHT22;5617;54.046;10.676;2022-10-16T10:44:55;19.10;99.90
11126;DHT22;5617;54.046;10.676;2022-10-16T10:47:12;19.20;99.90
11126;DHT22;5617;54.046;10.676;2022-10-16T10:49:34;19.20;99.90
11126;DHT22;5617;54.046;10.676;2022-10-16T10:51:55;19.30;99.90
11126;DHT22;5617;54.046;10.676;2022-10-16T10:54:14;19.50;99.90
11126;DHT22;5617;54.046;10.676;2022-10-16T10:56:39;19.60;99.40
11126;DHT22;5617;54.046;10.676;2022-10-16T10:59:04;19.50;98.80
11126;DHT22;5617;54.046;10.676;2022-10-16T11:01:16;19.50;99.00
11126;DHT22;5617;54.046;10.676;2022-10-16T11:03:35;19.50;98.90
11126;DHT22;5617;54.046;10.676;2022-10-16T11:05:49;19.50;98.90
11126;DHT22;5617;54.046;10.676;2022-10-16T11:08:00;19.60;98.80
11126;DHT22;5617;54.046;10.676;2022-10-16T11:10:15;19.50;98.70
11126;DHT22;5617;54.046;10.676;2022-10-16T11:12:27;19.70;98.60
11126;DHT22;5617;54.046;10.676;2022-10-16T11:14:42;19.70;98.50
11126;DHT22;5617;54.046;10.676;2022-10-16T11:16:52;19.80;98.40
11126;DHT22;5617;54.046;10.676;2022-10-16T11:19:14;19.80;98.50
11126;DHT22;5617;54.046;10.676;2022-10-16T11:21:26;20.00;98.50
11126;DHT22;5617;54.046;10.676;2022-10-16T11:23:40;19.80;97.90
11126;DHT22;5617;54.046;10.676;2022-10-16T11:25:49;19.60;97.50
11126;DHT22;5617;54.046;10.676;2022-10-16T11:28:01;19.40;97.60
11126;DHT22;5617;54.046;10.676;2022-10-16T11:30:18;19.30;97.60
11126;DHT22;5617;54.046;10.676;2022-10-16T11:32:30;19.30;97.80
11126;DHT22;5617;54.046;10.676;2022-10-16T11:34:47;19.30;97.80
11126;DHT22;5617;54.046;10.676;2022-10-16T11:36:59;19.30;98.00
11126;DHT22;5617;54.046;10.676;2022-10-16T11:39:19;19.40;97.80
11126;DHT22;5617;54.046;10.676;2022-10-16T11:41:32;19.40;97.40
11126;DHT22;5617;54.046;10.676;2022-10-16T11:43:46;19.50;97.40
11126;DHT22;5617;54.046;10.676;2022-10-16T11:46:02;19.60;97.20
11126;DHT22;5617;54.046;10.676;2022-10-16T11:48:20;19.80;96.70
11126;DHT22;5617;54.046;10.676;2022-10-16T11:50:32;19.70;96.50
11126;DHT22;5617;54.046;10.676;2022-10-16T11:52:46;19.70;96.60
11126;DHT22;5617;54.046;10.676;2022-10-16T11:55:01;19.80;96.60
11126;DHT22;5617;54.046;10.676;2022-10-16T11:57:14;19.90;96.50
11126;DHT22;5617;54.046;10.676;2022-10-16T11:59:27;19.90;96.30
11126;DHT22;5617;54.046;10.676;2022-10-16T12:01:42;19.80;96.10
11126;DHT22;5617;54.046;10.676;2022-10-16T12:04:04;19.50;96.10
11126;DHT22;5617;54.046;10.676;2022-10-16T12:06:26;19.30;96.30
11126;DHT22;5617;54.046;10.676;2022-10-16T12:08:35;19.30;96.40
11126;DHT22;5617;54.046;10.676;2022-10-16T12:10:46;19.40;96.30
11126;DHT22;5617;54.046;10.676;2022-10-16T12:12:54;19.40;96.20
11126;DHT22;5617;54.046;10.676;2022-10-16T12:15:18;19.40;96.10
11126;DHT22;5617;54.046;10.676;2022-10-16T12:17:35;19.50;96.00
11126;DHT22;5617;54.046;10.676;2022-10-16T12:19:43;19.70;95.80
11126;DHT22;5617;54.046;10.676;2022-10-16T12:21:52;19.70;95.80
11126;DHT22;5617;54.046;10.676;2022-10-16T12:24:03;19.40;95.80
11126;DHT22;5617;54.046;10.676;2022-10-16T12:26:11;19.30;95.80
11126;DHT22;5617;54.046;10.676;2022-10-16T12:28:21;19.10;95.90
11126;DHT22;5617;54.046;10.676;2022-10-16T12:30:31;18.90;96.10
11126;DHT22;5617;54.046;10.676;2022-10-16T12:32:40;18.60;96.40
11126;DHT22;5617;54.046;10.676;2022-10-16T12:34:48;18.50;96.80
11126;DHT22;5617;54.046;10.676;2022-10-16T12:37:10;18.30;97.00
11126;DHT22;5617;54.046;10.676;2022-10-16T12:39:22;18.20;97.30
11126;DHT22;5617;54.046;10.676;2022-10-16T12:41:31;18.10;97.50
11126;DHT22;5617;54.046;10.676;2022-10-16T12:43:41;18.00;97.80
11126;DHT22;5617;54.046;10.676;2022-10-16T12:45:59;17.90;98.00
11126;DHT22;5617;54.046;10.676;2022-10-16T12:48:20;17.90;98.10
11126;DHT22;5617;54.046;10.676;2022-10-16T12:50:32;18.00;98.10
11126;DHT22;5617;54.046;10.676;2022-10-16T12:52:40;18.10;98.50
11126;DHT22;5617;54.046;10.676;2022-10-16T12:54:51;18.50;98.10
11126;DHT22;5617;54.046;10.676;2022-10-16T12:57:19;18.80;97.70
11126;DHT22;5617;54.046;10.676;2022-10-16T12:59:40;18.90;97.50
11126;DHT22;5617;54.046;10.676;2022-10-16T13:02:11;19.20;97.30
11126;DHT22;5617;54.046;10.676;2022-10-16T13:04:37;19.30;96.80
11126;DHT22;5617;54.046;10.676;2022-10-16T13:06:53;19.40;96.30
11126;DHT22;5617;54.046;10.676;2022-10-16T13:09:17;19.40;96.00
11126;DHT22;5617;54.046;10.676;2022-10-16T13:11:33;19.50;95.50
11126;DHT22;5617;54.046;10.676;2022-10-16T13:14:01;19.40;95.20
11126;DHT22;5617;54.046;10.676;2022-10-16T13:16:19;19.40;95.20
11126;DHT22;5617;54.046;10.676;2022-10-16T13:18:40;19.40;95.40
11126;DHT22;5617;54.046;10.676;2022-10-16T13:20:59;19.30;95.50
11126;DHT22;5617;54.046;10.676;2022-10-16T13:23:15;19.00;95.50
11126;DHT22;5617;54.046;10.676;2022-10-16T13:25:34;18.70;95.60
11126;DHT22;5617;54.046;10.676;2022-10-16T13:27:52;18.60;95.90
11126;DHT22;5617;54.046;10.676;2022-10-16T13:30:11;18.40;96.10
11126;DHT22;5617;54.046;10.676;2022-10-16T13:32:20;18.50;96.40
11126;DHT22;5617;54.046;10.676;2022-10-16T13:34:29;18.70;96.50
11126;DHT22;5617;54.046;10.676;2022-10-16T13:36:44;19.00;96.80
11126;DHT22;5617;54.046;10.676;2022-10-16T13:39:02;19.20;96.00
11126;DHT22;5617;54.046;10.676;2022-10-16T13:41:15;19.30;95.80
11126;DHT22;5617;54.046;10.676;2022-10-16T13:43:27;19.50;95.60
11126;DHT22;5617;54.046;10.676;2022-10-16T13:45:36;19.70;95.60
11126;DHT22;5617;54.046;10.676;2022-10-16T13:47:44;19.80;95.40